Time;durP1;ratioP1;P1;durP2;ratioP2;P2;SDS_P1;SDS_P2;PMS_P1;PMS_P2;Temp;Humidity;BMP_temperature;BMP_pressure;BME280_temperature;BME280_humidity;BME280_pressure;Samples;Min_cycle;Max_cycle;Signal;HPM_P1;HPM_P2
2022/10/23 00:01:32;;;;;;;;;;;17.60;99.90;;;;;;4958992;29;19907;-78
2022/10/23 00:04:00;;;;;;;;;;;17.60;99.90;;;;;;4959037;29;20273;-77
2022/10/23 00:06:26;;;;;;;;;;;17.60;99.90;;;;;;4958923;29;19913;-79
2022/10/23 00:08:52;;;;;;;;;;;17.60;99.90;;;;;;4958927;29;19910;-78
2022/10/23 00:11:18;;;;;;;;;;;17.60;99.90;;;;;;4958714;29;20376;-78
2022/10/23 00:13:44;;;;;;;;;;;17.60;99.90;;;;;;4958802;29;19949;-78
2022/10/23 00:16:10;;;;;;;;;;;17.60;99.90;;;;;;4958776;29;20276;-79
2022/10/23 00:18:36;;;;;;;;;;;17.60;99.90;;;;;;4941427;29;19997;-78
2022/10/23 00:21:02;;;;;;;;;;;17.60;99.90;;;;;;4958440;29;20009;-78
2022/10/23 00:23:28;;;;;;;;;;;17.50;99.90;;;;;;4958387;29;19930;-77
2022/10/23 00:25:53;;;;;;;;;;;17.40;99.90;;;;;;4958564;29;19958;-77
2022/10/23 00:28:19;;;;;;;;;;;17.40;99.90;;;;;;4958394;29;19953;-79
2022/10/23 00:30:44;;;;;;;;;;;17.40;99.90;;;;;;4958594;29;20262;-78
2022/10/23 00:33:10;;;;;;;;;;;17.40;99.90;;;;;;4958705;29;19946;-78
2022/10/23 00:35:39;;;;;;;;;;;17.40;99.90;;;;;;4958530;29;19907;-78
2022/10/23 00:38:05;;;;;;;;;;;17.40;99.90;;;;;;4958364;29;19907;-77
2022/10/23 00:40:31;;;;;;;;;;;17.30;99.90;;;;;;4958294;29;19914;-77
2022/10/23 00:42:56;;;;;;;;;;;17.30;99.90;;;;;;4957804;28;20245;-78
2022/10/23 00:45:32;;;;;;;;;;;17.30;99.90;;;;;;4958193;29;19929;-78
2022/10/23 00:47:58;;;;;;;;;;;17.30;99.90;;;;;;4958758;29;20262;-78
2022/10/23 00:50:24;;;;;;;;;;;17.30;99.90;;;;;;4958051;29;19917;-80
2022/10/23 00:52:51;;;;;;;;;;;17.30;99.90;;;;;;4958438;29;19942;-79
2022/10/23 00:55:18;;;;;;;;;;;17.20;99.90;;;;;;4958068;29;20293;-77
2022/10/23 00:57:45;;;;;;;;;;;17.30;99.90;;;;;;4958047;29;19913;-77
2022/10/23 01:00:12;;;;;;;;;;;17.30;99.90;;;;;;4957944;29;20265;-76
2022/10/23 01:02:38;;;;;;;;;;;17.30;99.90;;;;;;4957887;29;19989;-79
2022/10/23 01:05:04;;;;;;;;;;;17.20;99.90;;;;;;4957911;29;19938;-79
2022/10/23 01:07:37;;;;;;;;;;;17.30;99.90;;;;;;4957819;29;19907;-78
2022/10/23 01:10:02;;;;;;;;;;;17.30;99.90;;;;;;4957799;29;19953;-78
2022/10/23 01:12:28;;;;;;;;;;;17.30;99.90;;;;;;4957684;29;19942;-78
2022/10/23 01:14:54;;;;;;;;;;;17.20;99.90;;;;;;4957688;29;19907;-77
2022/10/23 01:17:28;;;;;;;;;;;17.30;99.90;;;;;;4957705;29;20000;-77
2022/10/23 01:20:06;;;;;;;;;;;17.20;99.90;;;;;;4957567;29;19906;-79
2022/10/23 01:22:45;;;;;;;;;;;17.20;99.90;;;;;;4957774;29;19906;-78
2022/10/23 01:25:34;;;;;;;;;;;17.20;99.90;;;;;;4957731;29;19997;-78
2022/10/23 01:28:01;;;;;;;;;;;17.20;99.90;;;;;;4946988;28;19906;-79
2022/10/23 01:30:28;;;;;;;;;;;17.20;99.90;;;;;;4957503;29;20013;-78
2022/10/23 01:33:04;;;;;;;;;;;17.20;99.90;;;;;;4957646;29;19929;-78
2022/10/23 01:35:39;;;;;;;;;;;17.20;99.90;;;;;;4957863;29;19954;-76
2022/10/23 01:38:14;;;;;;;;;;;17.20;99.90;;;;;;4957154;29;19907;-79
2022/10/23 01:40:49;;;;;;;;;;;17.10;99.90;;;;;;4957162;29;20317;-77
2022/10/23 01:43:26;;;;;;;;;;;17.10;99.90;;;;;;4957124;29;19907;-78
2022/10/23 01:45:56;;;;;;;;;;;17.20;99.90;;;;;;4957115;29;19929;-79
2022/10/23 01:48:24;;;;;;;;;;;17.10;99.90;;;;;;4957598;29;19961;-78
2022/10/23 01:50:52;;;;;;;;;;;17.10;99.90;;;;;;4957108;29;19910;-79
2022/10/23 01:53:18;;;;;;;;;;;17.10;99.90;;;;;;4956931;28;19914;-78
2022/10/23 01:55:45;;;;;;;;;;;17.20;99.90;;;;;;4956645;29;20396;-78
2022/10/23 01:58:11;;;;;;;;;;;17.10;99.90;;;;;;4956893;29;19913;-79
2022/10/23 02:00:38;;;;;;;;;;;17.10;99.90;;;;;;4956863;29;19907;-79
2022/10/23 02:03:05;;;;;;;;;;;17.10;99.90;;;;;;4957096;29;19910;-78
2022/10/23 02:05:31;;;;;;;;;;;17.10;99.90;;;;;;4956722;29;19913;-77
2022/10/23 02:07:57;;;;;;;;;;;17.10;99.90;;;;;;4956740;29;20311;-78
2022/10/23 02:10:43;;;;;;;;;;;17.10;99.90;;;;;;4956547;29;19917;-77
2022/10/23 02:13:28;;;;;;;;;;;17.00;99.90;;;;;;4955847;28;20030;-78
2022/10/23 02:16:06;;;;;;;;;;;17.00;99.90;;;;;;4925869;29;20302;-79
2022/10/23 02:18:35;;;;;;;;;;;17.10;99.90;;;;;;4956824;29;20411;-77
2022/10/23 02:21:06;;;;;;;;;;;17.10;99.90;;;;;;4956685;29;19913;-78
2022/10/23 02:23:32;;;;;;;;;;;17.10;99.90;;;;;;4956329;29;19918;-75
2022/10/23 02:25:57;;;;;;;;;;;17.00;99.90;;;;;;4956391;29;19997;-77
2022/10/23 02:28:25;;;;;;;;;;;17.00;99.90;;;;;;4956351;29;19906;-79
2022/10/23 02:30:51;;;;;;;;;;;16.90;99.90;;;;;;4956384;29;19962;-77
2022/10/23 02:33:17;;;;;;;;;;;16.90;99.90;;;;;;4956189;29;19906;-77
2022/10/23 02:35:43;;;;;;;;;;;16.90;99.90;;;;;;4956212;29;19993;-79
2022/10/23 02:38:27;;;;;;;;;;;16.90;99.90;;;;;;4956231;29;19950;-78
2022/10/23 02:40:54;;;;;;;;;;;16.90;99.90;;;;;;4956109;29;20374;-78
2022/10/23 02:43:23;;;;;;;;;;;16.90;99.90;;;;;;4956326;29;19906;-78
2022/10/23 02:45:48;;;;;;;;;;;16.90;99.90;;;;;;4956085;29;19930;-78
2022/10/23 02:48:31;;;;;;;;;;;17.00;99.90;;;;;;4956534;29;19907;-77
2022/10/23 02:51:01;;;;;;;;;;;17.00;99.90;;;;;;4956285;29;19956;-77
2022/10/23 02:53:33;;;;;;;;;;;16.90;99.90;;;;;;4956067;29;19913;-79
2022/10/23 02:56:03;;;;;;;;;;;17.00;99.90;;;;;;4938629;29;20273;-77
2022/10/23 02:58:40;;;;;;;;;;;17.00;99.90;;;;;;4955840;29;19962;-76
2022/10/23 03:01:11;;;;;;;;;;;17.00;99.90;;;;;;4955943;29;19906;-77
2022/10/23 03:03:40;;;;;;;;;;;17.00;99.90;;;;;;4955868;29;20395;-77
2022/10/23 03:06:06;;;;;;;;;;;17.00;99.90;;;;;;4955594;28;19906;-78
2022/10/23 03:08:41;;;;;;;;;;;17.00;99.90;;;;;;4955716;29;19930;-78
2022/10/23 03:11:07;;;;;;;;;;;16.90;99.90;;;;;;4955622;29;20291;-78
2022/10/23 03:13:32;;;;;;;;;;;16.80;99.90;;;;;;4955708;29;19910;-78
2022/10/23 03:15:58;;;;;;;;;;;16.70;99.90;;;;;;4956158;29;19913;-78
2022/10/23 03:18:23;;;;;;;;;;;16.70;99.90;;;;;;4955599;29;20057;-77
2022/10/23 03:20:49;;;;;;;;;;;16.60;99.90;;;;;;4955431;29;19914;-79
2022/10/23 03:23:15;;;;;;;;;;;16.70;99.90;;;;;;4955489;29;20057;-78
2022/10/23 03:25:40;;;;;;;;;;;16.80;99.90;;;;;;4955683;29;19917;-78
2022/10/23 03:28:06;;;;;;;;;;;16.80;99.90;;;;;;4955482;29;19914;-78
2022/10/23 03:30:31;;;;;;;;;;;16.80;99.90;;;;;;4955347;29;19917;-77
2022/10/23 03:32:57;;;;;;;;;;;16.80;99.90;;;;;;4955432;29;19914;-78
2022/10/23 03:35:23;;;;;;;;;;;16.90;99.90;;;;;;4955421;29;19906;-79
2022/10/23 03:37:48;;;;;;;;;;;16.90;99.90;;;;;;4955426;29;19958;-77
2022/10/23 03:40:14;;;;;;;;;;;16.90;99.90;;;;;;4955402;29;20400;-79
2022/10/23 03:42:39;;;;;;;;;;;17.00;99.90;;;;;;4955372;29;20023;-78
2022/10/23 03:45:05;;;;;;;;;;;17.10;99.90;;;;;;4955253;29;19906;-79
2022/10/23 03:47:34;;;;;;;;;;;17.10;99.90;;;;;;4955892;29;19914;-78
2022/10/23 03:49:59;;;;;;;;;;;17.30;99.90;;;;;;4937991;29;19999;-78
2022/10/23 03:52:25;;;;;;;;;;;17.30;99.90;;;;;;4955646;29;19954;-78
2022/10/23 03:54:50;;;;;;;;;;;17.30;99.90;;;;;;4955535;29;19906;-79
2022/10/23 03:57:16;;;;;;;;;;;17.40;99.90;;;;;;4955460;29;19906;-77
2022/10/23 03:59:42;;;;;;;;;;;17.40;99.90;;;;;;4955291;29;20292;-78
2022/10/23 04:02:07;;;;;;;;;;;17.40;99.90;;;;;;4955086;29;19910;-77
2022/10/23 04:04:33;;;;;;;;;;;17.30;99.90;;;;;;4955430;29;20287;-78
2022/10/23 04:06:58;;;;;;;;;;;17.30;99.90;;;;;;4955142;29;19957;-78
2022/10/23 04:09:24;;;;;;;;;;;17.30;99.90;;;;;;4955245;29;20369;-78
2022/10/23 04:11:50;;;;;;;;;;;17.30;99.90;;;;;;4955007;29;19910;-78
2022/10/23 04:14:15;;;;;;;;;;;17.20;99.90;;;;;;4955125;29;19913;-77
2022/10/23 04:16:41;;;;;;;;;;;17.20;99.90;;;;;;4955640;28;19953;-78
2022/10/23 04:19:06;;;;;;;;;;;17.30;99.90;;;;;;4958640;29;19934;-78
2022/10/23 04:21:32;;;;;;;;;;;17.20;99.90;;;;;;4958477;29;19906;-78
2022/10/23 04:23:58;;;;;;;;;;;17.20;99.90;;;;;;4958379;29;19926;-78
2022/10/23 04:26:23;;;;;;;;;;;17.10;99.90;;;;;;4958445;29;20285;-77
2022/10/23 04:28:49;;;;;;;;;;;17.10;99.90;;;;;;4958700;29;19906;-78
2022/10/23 04:31:14;;;;;;;;;;;17.10;99.90;;;;;;4958375;29;19910;-79
2022/10/23 04:33:40;;;;;;;;;;;17.20;99.90;;;;;;4958470;29;19906;-78
2022/10/23 04:36:06;;;;;;;;;;;17.30;99.90;;;;;;4958447;29;19929;-77
2022/10/23 04:38:31;;;;;;;;;;;17.20;99.90;;;;;;4958514;29;20383;-77
2022/10/23 04:40:57;;;;;;;;;;;17.10;99.90;;;;;;4958504;29;19911;-78
2022/10/23 04:43:22;;;;;;;;;;;17.10;99.90;;;;;;4958338;29;19906;-78
2022/10/23 04:45:48;;;;;;;;;;;17.20;99.90;;;;;;4958344;29;19942;-78
2022/10/23 04:48:14;;;;;;;;;;;17.30;99.90;;;;;;4958787;29;19910;-77
2022/10/23 04:50:39;;;;;;;;;;;17.40;99.90;;;;;;4958065;29;20431;-77
2022/10/23 04:53:05;;;;;;;;;;;17.40;99.90;;;;;;4958048;29;19907;-77
2022/10/23 04:55:31;;;;;;;;;;;17.50;99.90;;;;;;4958335;29;20275;-78
2022/10/23 04:57:56;;;;;;;;;;;17.60;99.90;;;;;;4957984;29;19913;-79
2022/10/23 05:00:22;;;;;;;;;;;17.60;99.90;;;;;;4958209;29;19913;-79
2022/10/23 05:02:47;;;;;;;;;;;17.70;99.90;;;;;;4958073;29;19917;-78
2022/10/23 05:05:13;;;;;;;;;;;17.60;99.90;;;;;;4958155;29;19906;-78
2022/10/23 05:07:39;;;;;;;;;;;17.50;99.90;;;;;;4957957;29;19993;-78
2022/10/23 05:10:04;;;;;;;;;;;17.50;99.90;;;;;;4957596;29;20413;-79
2022/10/23 05:12:30;;;;;;;;;;;17.50;99.90;;;;;;4957762;29;19906;-77
2022/10/23 05:14:55;;;;;;;;;;;17.40;99.90;;;;;;4957816;29;20001;-77
2022/10/23 05:17:25;;;;;;;;;;;17.30;99.90;;;;;;4957704;29;19910;-78
2022/10/23 05:19:52;;;;;;;;;;;17.40;99.90;;;;;;4957576;29;19906;-79
2022/10/23 05:22:19;;;;;;;;;;;17.40;99.90;;;;;;4957820;29;19910;-79
2022/10/23 05:24:45;;;;;;;;;;;17.50;99.90;;;;;;4957130;29;19941;-79
2022/10/23 05:27:11;;;;;;;;;;;17.50;99.90;;;;;;4957485;29;20360;-79
2022/10/23 05:29:36;;;;;;;;;;;17.50;99.90;;;;;;4956390;28;19906;-79
2022/10/23 05:32:04;;;;;;;;;;;17.60;99.90;;;;;;4957556;29;20361;-78
2022/10/23 05:34:30;;;;;;;;;;;17.60;99.90;;;;;;4957242;29;19946;-78
2022/10/23 05:36:56;;;;;;;;;;;17.50;99.90;;;;;;4957334;29;20364;-77
2022/10/23 05:39:22;;;;;;;;;;;17.40;99.90;;;;;;4957213;29;19914;-77
2022/10/23 05:41:47;;;;;;;;;;;17.40;99.90;;;;;;4957419;29;19910;-77
2022/10/23 05:44:13;;;;;;;;;;;17.20;99.90;;;;;;4957165;29;19906;-78
2022/10/23 05:46:39;;;;;;;;;;;17.30;99.90;;;;;;4939866;29;19913;-79
2022/10/23 05:49:05;;;;;;;;;;;17.20;99.90;;;;;;4957705;29;19906;-77
2022/10/23 05:51:31;;;;;;;;;;;17.10;99.90;;;;;;4956963;29;19917;-78
2022/10/23 05:53:56;;;;;;;;;;;17.00;99.90;;;;;;4957452;29;19965;-79
2022/10/23 05:56:22;;;;;;;;;;;16.90;99.90;;;;;;4956937;29;19906;-78
2022/10/23 05:58:47;;;;;;;;;;;16.90;99.90;;;;;;4939936;29;19910;-79
2022/10/23 06:01:13;;;;;;;;;;;16.80;99.90;;;;;;4956922;29;19906;-77
2022/10/23 06:03:39;;;;;;;;;;;16.70;99.90;;;;;;4956805;29;20004;-78
2022/10/23 06:06:07;;;;;;;;;;;16.70;99.90;;;;;;4956739;29;20453;-78
2022/10/23 06:08:33;;;;;;;;;;;16.50;99.90;;;;;;4939432;29;19910;-77
2022/10/23 06:11:09;;;;;;;;;;;16.40;99.90;;;;;;4956657;29;19918;-77
2022/10/23 06:13:35;;;;;;;;;;;16.30;99.90;;;;;;4939393;29;20001;-79
2022/10/23 06:16:10;;;;;;;;;;;16.30;99.90;;;;;;4956659;29;19952;-77
2022/10/23 06:18:36;;;;;;;;;;;16.20;99.90;;;;;;4956657;29;19957;-77
2022/10/23 06:21:01;;;;;;;;;;;16.20;99.90;;;;;;4956415;29;20365;-80
2022/10/23 06:23:28;;;;;;;;;;;16.20;99.90;;;;;;4956302;29;19929;-79
2022/10/23 06:25:55;;;;;;;;;;;16.20;99.90;;;;;;4956647;29;19906;-79
2022/10/23 06:28:20;;;;;;;;;;;16.30;99.90;;;;;;4956361;29;20328;-78
2022/10/23 06:30:46;;;;;;;;;;;16.30;99.90;;;;;;4956230;29;19910;-79
2022/10/23 06:33:12;;;;;;;;;;;16.30;99.90;;;;;;4956298;29;20357;-79
2022/10/23 06:35:37;;;;;;;;;;;16.40;99.90;;;;;;4956660;29;19910;-78
2022/10/23 06:38:03;;;;;;;;;;;16.30;99.90;;;;;;4956205;29;20290;-78
2022/10/23 06:40:28;;;;;;;;;;;16.20;99.90;;;;;;4956035;28;19906;-79
2022/10/23 06:42:54;;;;;;;;;;;16.30;99.90;;;;;;4938858;29;19914;-79
2022/10/23 06:45:20;;;;;;;;;;;16.40;99.90;;;;;;4956063;29;20070;-76
2022/10/23 06:47:45;;;;;;;;;;;16.30;99.90;;;;;;4956088;29;19906;-77
2022/10/23 06:50:13;;;;;;;;;;;16.30;99.90;;;;;;4956225;29;19966;-78
2022/10/23 06:52:38;;;;;;;;;;;16.40;99.90;;;;;;4956071;29;19910;-78
2022/10/23 06:55:04;;;;;;;;;;;16.40;99.90;;;;;;4956084;29;19910;-77
2022/10/23 06:57:30;;;;;;;;;;;16.40;99.90;;;;;;4955943;29;19913;-77
2022/10/23 06:59:55;;;;;;;;;;;16.40;99.90;;;;;;4938891;29;19973;-76
2022/10/23 07:02:21;;;;;;;;;;;16.40;99.90;;;;;;4956282;29;19997;-78
2022/10/23 07:04:46;;;;;;;;;;;16.50;99.90;;;;;;4955865;29;19907;-78
2022/10/23 07:07:12;;;;;;;;;;;16.50;99.90;;;;;;4955964;29;19906;-77
2022/10/23 07:09:37;;;;;;;;;;;16.50;99.90;;;;;;4955679;29;19917;-78
2022/10/23 07:12:03;;;;;;;;;;;16.40;99.90;;;;;;4955725;29;20004;-78
2022/10/23 07:14:31;;;;;;;;;;;16.40;99.90;;;;;;4956021;29;19906;-78
2022/10/23 07:16:56;;;;;;;;;;;16.50;99.90;;;;;;4938466;29;19906;-79
2022/10/23 07:19:22;;;;;;;;;;;16.40;99.90;;;;;;4955576;29;19969;-76
2022/10/23 07:21:47;;;;;;;;;;;16.40;99.90;;;;;;4955497;29;19910;-79
2022/10/23 07:24:13;;;;;;;;;;;16.40;99.90;;;;;;4955374;29;19969;-78
2022/10/23 07:26:40;;;;;;;;;;;16.50;99.90;;;;;;4955897;29;19907;-77
2022/10/23 07:29:06;;;;;;;;;;;16.60;99.90;;;;;;4955746;29;19989;-78
2022/10/23 07:31:32;;;;;;;;;;;16.70;99.90;;;;;;4955222;29;19916;-78
2022/10/23 07:33:57;;;;;;;;;;;16.80;99.90;;;;;;4955482;29;20291;-78
2022/10/23 07:36:23;;;;;;;;;;;16.90;99.90;;;;;;4955787;29;19913;-78
2022/10/23 07:38:49;;;;;;;;;;;16.60;99.90;;;;;;4955654;29;20329;-78
2022/10/23 07:41:15;;;;;;;;;;;16.50;99.90;;;;;;4955528;29;19949;-78
2022/10/23 07:43:40;;;;;;;;;;;16.70;99.90;;;;;;4955361;29;19906;-77
2022/10/23 07:46:08;;;;;;;;;;;16.90;99.90;;;;;;4955339;29;19969;-78
2022/10/23 07:48:34;;;;;;;;;;;17.00;99.90;;;;;;4956102;29;19960;-79
2022/10/23 07:51:01;;;;;;;;;;;17.00;99.90;;;;;;4938051;28;19928;-79
2022/10/23 07:53:27;;;;;;;;;;;17.10;99.90;;;;;;4958139;29;19936;-78
2022/10/23 07:56:16;;;;;;;;;;;17.20;99.90;;;;;;4959368;29;20385;-79
2022/10/23 07:58:42;;;;;;;;;;;17.30;99.90;;;;;;4948795;29;19970;-79
2022/10/23 08:01:14;;;;;;;;;;;17.30;99.90;;;;;;4959097;29;19910;-78
2022/10/23 08:03:39;;;;;;;;;;;17.20;99.90;;;;;;4958945;29;20322;-79
2022/10/23 08:06:05;;;;;;;;;;;17.10;99.90;;;;;;4958981;29;20010;-77
2022/10/23 08:08:30;;;;;;;;;;;16.90;99.90;;;;;;4959109;29;19906;-78
2022/10/23 08:10:56;;;;;;;;;;;16.90;99.90;;;;;;4958941;29;20292;-77
2022/10/23 08:13:22;;;;;;;;;;;16.80;99.90;;;;;;4958955;29;19913;-79
2022/10/23 08:15:49;;;;;;;;;;;16.90;99.90;;;;;;4958776;29;19911;-79
2022/10/23 08:18:15;;;;;;;;;;;16.90;99.90;;;;;;4958747;29;19906;-78
2022/10/23 08:20:41;;;;;;;;;;;16.80;99.90;;;;;;4941399;29;19907;-77
2022/10/23 08:23:08;;;;;;;;;;;16.80;99.90;;;;;;4958520;29;19960;-78
2022/10/23 08:25:33;;;;;;;;;;;16.80;99.90;;;;;;4958820;29;19906;-77
2022/10/23 08:27:59;;;;;;;;;;;17.10;99.90;;;;;;4958665;29;20365;-80
2022/10/23 08:30:25;;;;;;;;;;;17.80;99.90;;;;;;4958487;29;20001;-77
2022/10/23 08:32:51;;;;;;;;;;;19.80;99.90;;;;;;4958894;29;19997;-77
2022/10/23 08:35:17;;;;;;;;;;;20.80;99.90;;;;;;4958651;29;19913;-81
2022/10/23 08:37:42;;;;;;;;;;;22.80;99.90;;;;;;4958335;29;19952;-80
2022/10/23 08:40:20;;;;;;;;;;;24.50;99.90;;;;;;4958506;29;19997;-79
2022/10/23 08:42:49;;;;;;;;;;;25.20;99.80;;;;;;4958297;29;19916;-80
2022/10/23 08:45:29;;;;;;;;;;;25.90;97.40;;;;;;4958243;29;19907;-79
2022/10/23 08:47:57;;;;;;;;;;;26.20;94.80;;;;;;4958212;29;19954;-80
2022/10/23 08:50:28;;;;;;;;;;;26.40;93.40;;;;;;4941334;29;20284;-80
2022/10/23 08:53:12;;;;;;;;;;;26.90;92.60;;;;;;4958157;29;19906;-78
2022/10/23 08:55:43;;;;;;;;;;;27.10;91.10;;;;;;4940868;29;20281;-81
2022/10/23 08:58:14;;;;;;;;;;;27.60;89.50;;;;;;4958195;29;19954;-80
2022/10/23 09:00:40;;;;;;;;;;;26.80;86.90;;;;;;4958021;29;19906;-79
2022/10/23 09:03:08;;;;;;;;;;;27.20;89.60;;;;;;4957940;28;19910;-80
2022/10/23 09:05:51;;;;;;;;;;;28.00;85.90;;;;;;4957965;29;19938;-81
2022/10/23 09:08:38;;;;;;;;;;;28.90;82.10;;;;;;4958074;29;19954;-81
2022/10/23 09:11:09;;;;;;;;;;;29.20;80.10;;;;;;4957802;29;19921;-79
2022/10/23 09:13:38;;;;;;;;;;;27.50;83.50;;;;;;4958242;29;19958;-79
2022/10/23 09:16:13;;;;;;;;;;;26.30;83.90;;;;;;4957726;29;20005;-80
2022/10/23 09:18:40;;;;;;;;;;;25.80;91.40;;;;;;4957803;29;19911;-79
2022/10/23 09:21:09;;;;;;;;;;;27.10;87.20;;;;;;4958029;29;19913;-80
2022/10/23 09:23:35;;;;;;;;;;;28.50;81.40;;;;;;4957421;29;19918;-81
2022/10/23 09:26:04;;;;;;;;;;;27.70;82.10;;;;;;4957677;29;19906;-79
2022/10/23 09:28:30;;;;;;;;;;;29.10;81.80;;;;;;4957554;29;19950;-80
2022/10/23 09:31:09;;;;;;;;;;;29.80;75.70;;;;;;4957399;29;19910;-80
2022/10/23 09:33:36;;;;;;;;;;;29.90;74.60;;;;;;4957405;29;20381;-81
2022/10/23 09:36:03;;;;;;;;;;;29.90;75.00;;;;;;4957524;29;19945;-80
2022/10/23 09:38:31;;;;;;;;;;;30.30;72.40;;;;;;4957230;29;20000;-79
2022/10/23 09:41:12;;;;;;;;;;;29.90;71.40;;;;;;4957489;29;19907;-81
2022/10/23 09:43:37;;;;;;;;;;;29.70;70.80;;;;;;4957391;29;19945;-79
2022/10/23 09:46:05;;;;;;;;;;;30.10;71.10;;;;;;4957280;29;20353;-77
2022/10/23 09:48:31;;;;;;;;;;;30.20;69.70;;;;;;4957843;29;20373;-80
2022/10/23 09:50:58;;;;;;;;;;;30.10;70.20;;;;;;4957170;29;19910;-80
2022/10/23 09:53:36;;;;;;;;;;;30.30;69.80;;;;;;4956921;29;20383;-81
2022/10/23 09:56:03;;;;;;;;;;;30.50;68.70;;;;;;4956923;29;19997;-79
2022/10/23 09:58:32;;;;;;;;;;;30.70;66.00;;;;;;4957130;29;19907;-81
2022/10/23 10:00:57;;;;;;;;;;;31.00;66.50;;;;;;4956920;29;19913;-81
2022/10/23 10:03:23;;;;;;;;;;;30.90;67.10;;;;;;4957033;29;19906;-79
2022/10/23 10:05:53;;;;;;;;;;;31.40;66.60;;;;;;4956798;29;19906;-81
2022/10/23 10:08:24;;;;;;;;;;;31.60;67.20;;;;;;4956704;29;20288;-80
2022/10/23 10:10:52;;;;;;;;;;;31.70;66.60;;;;;;4956636;29;19910;-82
2022/10/23 10:13:17;;;;;;;;;;;31.80;66.30;;;;;;4956714;29;20377;-80
2022/10/23 10:15:49;;;;;;;;;;;32.50;67.70;;;;;;4956037;28;19914;-79
2022/10/23 10:18:26;;;;;;;;;;;33.40;64.30;;;;;;4956653;29;19907;-80
2022/10/23 10:20:52;;;;;;;;;;;33.60;62.90;;;;;;4956969;29;19914;-80
2022/10/23 10:23:50;;;;;;;;;;;33.90;63.00;;;;;;4956519;29;19914;-80
2022/10/23 10:26:18;;;;;;;;;;;33.30;62.10;;;;;;4897741;29;19968;-80
2022/10/23 10:28:50;;;;;;;;;;;33.10;62.50;;;;;;4956431;29;19906;-80
2022/10/23 10:31:25;;;;;;;;;;;33.50;62.50;;;;;;4956485;29;19911;-78
2022/10/23 10:34:00;;;;;;;;;;;32.80;61.70;;;;;;4956419;29;20368;-79
2022/10/23 10:36:44;;;;;;;;;;;32.50;60.90;;;;;;4956333;29;19913;-82
2022/10/23 10:39:15;;;;;;;;;;;32.80;60.20;;;;;;4956542;29;20024;-82
2022/10/23 10:41:49;;;;;;;;;;;33.00;59.50;;;;;;4956348;29;19937;-82
2022/10/23 10:44:24;;;;;;;;;;;33.10;60.00;;;;;;4956216;29;19997;-81
2022/10/23 10:46:57;;;;;;;;;;;29.90;62.50;;;;;;4956091;29;19913;-79
2022/10/23 10:49:30;;;;;;;;;;;30.10;63.50;;;;;;4956555;29;20292;-79
2022/10/23 10:52:00;;;;;;;;;;;31.40;62.10;;;;;;4956071;29;20012;-80
2022/10/23 10:54:37;;;;;;;;;;;31.00;60.70;;;;;;4955919;29;20005;-79
2022/10/23 10:57:04;;;;;;;;;;;27.80;64.90;;;;;;4956135;29;20388;-80
2022/10/23 10:59:30;;;;;;;;;;;28.40;69.80;;;;;;4955880;29;19913;-80
2022/10/23 11:02:04;;;;;;;;;;;26.70;68.30;;;;;;4955858;29;19992;-80
2022/10/23 11:04:37;;;;;;;;;;;25.40;72.40;;;;;;4955788;29;19907;-81
2022/10/23 11:07:06;;;;;;;;;;;24.60;75.90;;;;;;4955988;29;19910;-78
2022/10/23 11:09:31;;;;;;;;;;;24.50;79.80;;;;;;4955731;29;19906;-78
2022/10/23 11:11:57;;;;;;;;;;;24.00;81.90;;;;;;4955713;29;19910;-79
2022/10/23 11:14:24;;;;;;;;;;;23.10;89.30;;;;;;4955899;29;19920;-77
2022/10/23 11:16:51;;;;;;;;;;;22.80;91.10;;;;;;4955828;29;19910;-79
2022/10/23 11:19:23;;;;;;;;;;;22.90;92.70;;;;;;4955665;29;19993;-79
2022/10/23 11:22:09;;;;;;;;;;;23.00;92.90;;;;;;4955559;29;19973;-80
2022/10/23 11:24:43;;;;;;;;;;;22.90;94.00;;;;;;4954759;28;20383;-79
2022/10/23 11:27:27;;;;;;;;;;;22.80;93.80;;;;;;4955661;28;19910;-79
2022/10/23 11:30:08;;;;;;;;;;;22.70;93.10;;;;;;4955459;29;19940;-77
2022/10/23 11:32:52;;;;;;;;;;;22.60;94.00;;;;;;4955660;29;19914;-80
2022/10/23 11:35:36;;;;;;;;;;;22.20;94.30;;;;;;4955518;29;19906;-78
2022/10/23 11:38:07;;;;;;;;;;;21.90;94.20;;;;;;4955481;29;19907;-78
2022/10/23 11:40:33;;;;;;;;;;;21.80;95.00;;;;;;4955498;29;19910;-76
2022/10/23 11:42:58;;;;;;;;;;;22.10;94.20;;;;;;4955317;29;19996;-79
2022/10/23 11:45:32;;;;;;;;;;;22.10;94.90;;;;;;4955417;29;19913;-78
2022/10/23 11:48:00;;;;;;;;;;;22.00;94.90;;;;;;4955350;29;19929;-78
2022/10/23 11:50:29;;;;;;;;;;;21.80;95.20;;;;;;4938569;29;19911;-79
2022/10/23 11:53:04;;;;;;;;;;;22.10;95.70;;;;;;4955389;29;19906;-78
2022/10/23 11:55:30;;;;;;;;;;;22.40;94.60;;;;;;4955271;29;19957;-76
2022/10/23 11:58:07;;;;;;;;;;;23.10;92.40;;;;;;4955263;29;19914;-79
2022/10/23 12:00:34;;;;;;;;;;;22.90;91.90;;;;;;4955598;29;19989;-80
2022/10/23 12:03:00;;;;;;;;;;;23.00;91.00;;;;;;4955259;29;19906;-76
2022/10/23 12:05:40;;;;;;;;;;;22.70;90.60;;;;;;4955238;29;19914;-80
2022/10/23 12:08:15;;;;;;;;;;;22.40;91.30;;;;;;4937972;29;20442;-77
2022/10/23 12:10:51;;;;;;;;;;;22.00;82.80;;;;;;4955266;29;19910;-79
2022/10/23 12:13:28;;;;;;;;;;;21.60;81.40;;;;;;4955218;29;19906;-78
2022/10/23 12:15:54;;;;;;;;;;;21.30;83.00;;;;;;4955329;29;19929;-77
2022/10/23 12:18:20;;;;;;;;;;;21.10;84.40;;;;;;4955087;29;20432;-78
2022/10/23 12:21:02;;;;;;;;;;;20.90;86.20;;;;;;4954862;29;20364;-77
2022/10/23 12:23:46;;;;;;;;;;;20.70;84.50;;;;;;4954751;29;19940;-77
2022/10/23 12:26:11;;;;;;;;;;;20.60;84.70;;;;;;4955054;29;19906;-77
2022/10/23 12:28:50;;;;;;;;;;;20.50;85.30;;;;;;4955151;29;19907;-78
2022/10/23 12:31:35;;;;;;;;;;;20.50;82.60;;;;;;4955162;29;19917;-77
2022/10/23 12:34:07;;;;;;;;;;;20.40;87.10;;;;;;4954121;29;19914;-78
2022/10/23 12:36:33;;;;;;;;;;;20.70;84.30;;;;;;4954996;29;20395;-78
2022/10/23 12:38:58;;;;;;;;;;;21.80;79.40;;;;;;4956766;28;19934;-78
2022/10/23 12:41:25;;;;;;;;;;;24.40;72.00;;;;;;4958248;29;20292;-79
2022/10/23 12:43:53;;;;;;;;;;;26.40;65.70;;;;;;4958304;29;20392;-77
2022/10/23 12:46:29;;;;;;;;;;;29.50;59.10;;;;;;4958308;29;19915;-79
2022/10/23 12:48:55;;;;;;;;;;;29.40;52.10;;;;;;4958753;29;19906;-79
2022/10/23 12:51:22;;;;;;;;;;;27.60;52.10;;;;;;4958043;29;19917;-81
2022/10/23 12:53:48;;;;;;;;;;;28.20;53.50;;;;;;4958040;29;20391;-80
2022/10/23 12:56:14;;;;;;;;;;;28.90;50.20;;;;;;4958027;29;19954;-80
2022/10/23 12:58:44;;;;;;;;;;;28.60;49.20;;;;;;4958071;29;20262;-80
2022/10/23 13:01:21;;;;;;;;;;;29.60;48.00;;;;;;4957989;29;19906;-80
2022/10/23 13:03:47;;;;;;;;;;;30.20;45.70;;;;;;4958146;29;19906;-80
2022/10/23 13:06:13;;;;;;;;;;;31.40;45.40;;;;;;4957946;29;19949;-80
2022/10/23 13:08:48;;;;;;;;;;;32.30;43.70;;;;;;4957905;29;20284;-80
2022/10/23 13:11:15;;;;;;;;;;;31.40;43.20;;;;;;4958147;29;19911;-78
2022/10/23 13:13:40;;;;;;;;;;;26.20;48.10;;;;;;4957748;29;19957;-80
2022/10/23 13:16:32;;;;;;;;;;;28.50;49.60;;;;;;4957735;29;20405;-80
2022/10/23 13:18:58;;;;;;;;;;;30.60;47.00;;;;;;4954167;29;19913;-79
2022/10/23 13:21:25;;;;;;;;;;;26.70;47.30;;;;;;4940391;29;20281;-78
2022/10/23 13:23:51;;;;;;;;;;;25.80;50.60;;;;;;4957413;29;19925;-78
2022/10/23 13:26:24;;;;;;;;;;;30.50;46.30;;;;;;4957858;29;19913;-79
2022/10/23 13:28:50;;;;;;;;;;;30.90;47.00;;;;;;4957665;29;20008;-81
2022/10/23 13:31:16;;;;;;;;;;;30.40;46.60;;;;;;4957397;29;20058;-78
2022/10/23 13:33:51;;;;;;;;;;;31.80;45.00;;;;;;4957432;29;19906;-80
2022/10/23 13:36:17;;;;;;;;;;;32.00;43.90;;;;;;4957399;29;19960;-80
2022/10/23 13:38:47;;;;;;;;;;;31.60;41.80;;;;;;4957306;29;20045;-82
2022/10/23 13:41:13;;;;;;;;;;;;;;;;;;4957417;29;19929;-83
2022/10/23 13:43:39;;;;;;;;;;;;;;;;;;4957246;29;19913;-81
2022/10/23 13:46:05;;;;;;;;;;;32.60;42.20;;;;;;4957235;29;19906;-82
2022/10/23 13:48:30;;;;;;;;;;;32.00;42.70;;;;;;4957501;29;19907;-80
2022/10/23 13:50:59;;;;;;;;;;;31.00;41.80;;;;;;4956661;28;20369;-80
2022/10/23 13:53:25;;;;;;;;;;;31.70;43.80;;;;;;4957067;29;20009;-81
2022/10/23 13:55:51;;;;;;;;;;;32.10;42.50;;;;;;4957696;29;19946;-81
2022/10/23 13:58:17;;;;;;;;;;;32.90;42.40;;;;;;4957320;29;19907;-79
2022/10/23 14:00:44;;;;;;;;;;;33.30;42.20;;;;;;4956878;29;19970;-78
2022/10/23 14:03:10;;;;;;;;;;;29.20;42.40;;;;;;4956806;29;20365;-82
2022/10/23 14:05:35;;;;;;;;;;;28.90;45.60;;;;;;4957163;29;19906;-79
2022/10/23 14:08:01;;;;;;;;;;;30.30;45.20;;;;;;4956884;29;20015;-79
2022/10/23 14:10:26;;;;;;;;;;;30.50;43.70;;;;;;4956714;29;20288;-79
2022/10/23 14:12:53;;;;;;;;;;;30.10;43.20;;;;;;4956702;29;20005;-82
2022/10/23 14:15:19;;;;;;;;;;;30.20;44.30;;;;;;4956636;29;19950;-80
2022/10/23 14:17:45;;;;;;;;;;;29.10;45.20;;;;;;4956723;29;19929;-81
2022/10/23 14:20:11;;;;;;;;;;;26.70;48.40;;;;;;4956504;29;19989;-81
2022/10/23 14:22:36;;;;;;;;;;;24.90;50.80;;;;;;4956546;29;19913;-80
2022/10/23 14:25:02;;;;;;;;;;;25.50;52.40;;;;;;4956013;29;20064;-81
2022/10/23 14:27:28;;;;;;;;;;;26.40;51.00;;;;;;4956412;29;20365;-82